Main page
METAR-TAF:

METAR-TAF

Airports :

Sulaimaniyah International Airport

Sulaymaniyah, Iraq

latitude: 35-33-39N, longitude: 45-18-52E, elevation: 760 m

Current weather observation

The report was made 56 minutes ago, at 00:00 UTC
Wind 4 kt from the North/Northwest
Temperature 22°C
Humidity 35%
Pressure 1009 hPa
Visibility 10 km or more
no clouds below 1500 m and no cumulonimbus

METAR: ORSU 210000Z 33004KT CAVOK 22/06 Q1009

Time: 03:56 (00:56 UTC)

Forecast

The report was made 1 hour and 56 minutes ago, at 23:00 UTC
Forecast valid from 21 at 00 UTC to 22 at 00 UTC
Wind 7 kt from the Northwest
Visibility 10 km or more
no clouds below 1500 m and no cumulonimbus
Temporary
from 21 at 09 UTC to 21 at 16 UTC
Wind 14 kt from the West

TAF: ORSU 202300Z 2100/2200 32007KT CAVOK TEMPO 2109/2116 28014KT

Weather observations and forecasts of more than 4000 airports (METAR and TAF reports).

The available stations are represented by yellow and red dots on the map.

Hover mouse over dot to see the name of the station.

Then click to see weather observations and forecasts.

To change the map : click on the green buttons with a black cross to zoom in, on the green button with a dash to zoom out, or on the green arrows for adjacent maps.


METAR-TAF: